Terminal Aerodrome Forecast
Issued by NWS

Home | Current Version | Previous Version | Text Only | Print | Product List | Glossary On
Versions: 1 2 3 4 5 6 7 8 9 10 11 12 13 14 15 16
000
FTUS43 KOAX 221120
TAFBFF
TAF
KBFF 221120Z 2212/2312 32006KT P6SM SKC
     FM221900 13010KT P6SM SCT120 BKN250
     FM230100 04018G26KT P6SM -SHRA BKN050 OVC100=

USA.gov is the U.S. government's official web portal to all federal, state and local government web resources and services.